createdAt,value
2022-11-22T00:00:58.493Z,4.83
2022-11-22T00:03:26.235Z,5.20
2022-11-22T00:05:53.737Z,7.57
2022-11-22T00:08:21.838Z,5.80
2022-11-22T00:10:50.958Z,5.80
2022-11-22T00:13:21.237Z,6.33
2022-11-22T00:16:02.107Z,4.17
2022-11-22T00:18:31.113Z,5.47
2022-11-22T00:21:07.629Z,8.37
2022-11-22T00:23:35.990Z,3.60
2022-11-22T00:26:03.646Z,6.40
2022-11-22T00:28:31.389Z,3.00
2022-11-22T00:30:58.937Z,5.23
2022-11-22T00:33:26.601Z,4.10
2022-11-22T00:35:54.139Z,8.53
2022-11-22T00:38:21.793Z,7.17
2022-11-22T00:40:49.357Z,7.07
2022-11-22T00:43:16.919Z,4.43
2022-11-22T00:45:44.471Z,3.37
2022-11-22T00:48:12.105Z,5.53
2022-11-22T00:50:40.049Z,6.40
2022-11-22T00:53:07.753Z,4.73
2022-11-22T00:55:35.504Z,4.30
2022-11-22T00:58:03.334Z,6.03
2022-11-22T01:00:31.377Z,4.80
2022-11-22T01:02:59.035Z,5.50
2022-11-22T01:05:26.669Z,3.53
2022-11-22T01:07:54.706Z,5.53
2022-11-22T01:10:23.264Z,10.30
2022-11-22T01:12:50.858Z,4.60
2022-11-22T01:15:18.581Z,5.17
2022-11-22T01:17:46.355Z,5.07
2022-11-22T01:20:14.806Z,6.10
2022-11-22T01:22:42.494Z,4.03
2022-11-22T01:25:11.136Z,4.30
2022-11-22T01:27:38.794Z,4.43
2022-11-22T01:30:07.704Z,7.33
2022-11-22T01:32:35.927Z,7.50
2022-11-22T01:35:03.823Z,6.27
2022-11-22T01:37:31.401Z,4.63
2022-11-22T01:39:58.970Z,6.00
2022-11-22T01:42:52.799Z,11.10
2022-11-22T01:45:41.342Z,6.73
2022-11-22T01:48:56.874Z,5.77
2022-11-22T01:51:40.517Z,4.73
2022-11-22T01:54:29.843Z,6.47
2022-11-22T01:57:07.179Z,6.30
2022-11-22T01:59:46.692Z,7.60
2022-11-22T02:02:15.146Z,5.13
2022-11-22T02:04:45.498Z,8.43
2022-11-22T02:07:35.902Z,5.67
2022-11-22T02:10:04.272Z,8.13
2022-11-22T02:12:35.535Z,6.03
2022-11-22T02:15:05.204Z,7.73
2022-11-22T02:17:32.780Z,6.07
2022-11-22T02:20:00.452Z,8.70
2022-11-22T02:23:11.820Z,6.47
2022-11-22T02:25:42.131Z,6.73
2022-11-22T02:28:14.074Z,5.40
2022-11-22T02:30:42.920Z,8.47
2022-11-22T02:33:11.073Z,8.70
2022-11-22T02:35:41.880Z,5.90
2022-11-22T02:38:35.580Z,4.40
2022-11-22T02:41:12.591Z,6.17
2022-11-22T02:43:47.823Z,8.20
2022-11-22T02:46:20.856Z,4.90
2022-11-22T02:48:49.122Z,6.63
2022-11-22T02:51:20.189Z,7.97
2022-11-22T02:53:52.324Z,8.10
2022-11-22T02:56:20.476Z,8.67
2022-11-22T02:58:48.021Z,8.60
2022-11-22T03:01:15.710Z,8.50
2022-11-22T03:03:43.439Z,7.60
2022-11-22T03:06:11.055Z,12.03
2022-11-22T03:08:38.964Z,7.47
2022-11-22T03:11:06.718Z,7.40
2022-11-22T03:13:34.262Z,11.70
2022-11-22T03:16:01.908Z,16.50
2022-11-22T03:18:30.060Z,12.10
2022-11-22T03:21:09.145Z,10.90
2022-11-22T03:23:37.197Z,11.53
2022-11-22T03:26:11.964Z,6.90
2022-11-22T03:28:39.513Z,11.63
2022-11-22T03:31:09.076Z,5.47
2022-11-22T03:33:43.763Z,9.63
2022-11-22T03:36:11.757Z,12.47
2022-11-22T03:38:39.301Z,11.90
2022-11-22T03:41:06.914Z,11.40
2022-11-22T03:43:34.685Z,12.33
2022-11-22T03:46:02.376Z,5.73
2022-11-22T03:48:30.150Z,6.83
2022-11-22T03:51:07.425Z,6.53
2022-11-22T03:53:34.998Z,9.53
2022-11-22T03:56:02.769Z,10.67
2022-11-22T03:58:31.123Z,11.90
2022-11-22T04:00:59.695Z,8.87
2022-11-22T04:03:27.470Z,11.57
2022-11-22T04:05:55.916Z,11.33
2022-11-22T04:08:23.634Z,9.47
2022-11-22T04:10:52.483Z,6.20
2022-11-22T04:13:20.679Z,6.87
2022-11-22T04:15:48.355Z,8.97
2022-11-22T04:18:15.923Z,12.80
2022-11-22T04:21:02.233Z,5.63
2022-11-22T04:23:34.001Z,10.20
2022-11-22T04:26:02.683Z,7.30
2022-11-22T04:28:54.148Z,8.93
2022-11-22T04:31:36.459Z,7.73
2022-11-22T04:34:03.991Z,7.80
2022-11-22T04:36:31.599Z,12.03
2022-11-22T04:38:59.178Z,8.60
2022-11-22T04:41:26.730Z,8.27
2022-11-22T04:44:13.064Z,8.83
2022-11-22T04:46:41.619Z,9.50
2022-11-22T04:49:09.434Z,13.83
2022-11-22T04:51:55.623Z,9.57
2022-11-22T04:54:23.338Z,7.73
2022-11-22T04:56:50.970Z,12.33
2022-11-22T04:59:18.497Z,11.47
2022-11-22T05:01:46.115Z,13.87
2022-11-22T05:04:13.849Z,5.67
2022-11-22T05:06:41.522Z,9.63
2022-11-22T05:09:09.115Z,8.50
2022-11-22T05:11:37.210Z,7.57
2022-11-22T05:14:04.778Z,8.80
2022-11-22T05:16:32.319Z,14.27
2022-11-22T05:18:59.864Z,21.70
2022-11-22T05:21:30.558Z,13.90
2022-11-22T05:23:58.621Z,17.50
2022-11-22T05:26:36.640Z,13.47
2022-11-22T05:29:10.998Z,6.50
2022-11-22T05:31:40.763Z,10.03
2022-11-22T05:34:08.499Z,12.33
2022-11-22T05:36:36.503Z,10.57
2022-11-22T05:39:05.032Z,10.53
2022-11-22T05:41:32.618Z,11.80
2022-11-22T05:44:00.381Z,13.97
2022-11-22T05:46:31.392Z,10.43
2022-11-22T05:48:59.786Z,8.50
2022-11-22T05:51:34.535Z,21.20
2022-11-22T05:54:03.709Z,12.47
2022-11-22T05:56:31.368Z,10.20
2022-11-22T05:58:59.040Z,13.90
2022-11-22T06:01:26.663Z,10.20
2022-11-22T06:03:55.217Z,19.87
2022-11-22T06:06:23.231Z,11.27
2022-11-22T06:08:51.676Z,11.80
2022-11-22T06:11:28.646Z,8.10
2022-11-22T06:14:05.555Z,10.20
2022-11-22T06:16:33.225Z,11.93
2022-11-22T06:19:00.966Z,9.17
2022-11-22T06:21:28.822Z,12.70
2022-11-22T06:23:57.062Z,5.40
2022-11-22T06:26:26.714Z,15.77
2022-11-22T06:28:55.636Z,13.00
2022-11-22T06:31:28.015Z,10.43
2022-11-22T06:34:00.930Z,10.90
2022-11-22T06:36:34.404Z,12.00
2022-11-22T06:39:04.706Z,7.30
2022-11-22T06:41:37.465Z,6.77
2022-11-22T06:44:10.354Z,17.07
2022-11-22T06:46:39.209Z,8.50
2022-11-22T06:49:06.835Z,10.53
2022-11-22T06:51:34.942Z,13.90
2022-11-22T06:54:02.657Z,11.33
2022-11-22T06:56:40.737Z,15.23
2022-11-22T06:59:10.064Z,11.53
2022-11-22T07:01:38.700Z,21.03
2022-11-22T07:04:07.083Z,10.70
2022-11-22T07:06:39.048Z,15.07
2022-11-22T07:09:17.895Z,14.43
2022-11-22T07:11:50.344Z,13.60
2022-11-22T07:14:20.972Z,15.17
2022-11-22T07:16:48.541Z,9.93
2022-11-22T07:19:16.365Z,16.20
2022-11-22T07:21:43.964Z,9.80
2022-11-22T07:24:11.768Z,11.13
2022-11-22T07:26:39.458Z,13.17
2022-11-22T07:29:07.225Z,11.97
2022-11-22T07:31:35.142Z,18.70
2022-11-22T07:34:02.903Z,18.17
2022-11-22T07:36:30.708Z,7.10
2022-11-22T07:38:58.982Z,13.73
2022-11-22T07:41:26.796Z,12.93
2022-11-22T07:43:55.012Z,11.10
2022-11-22T07:46:31.964Z,13.40
2022-11-22T07:49:02.756Z,10.30
2022-11-22T07:51:31.035Z,17.57
2022-11-22T07:53:58.924Z,8.40
2022-11-22T07:56:27.916Z,15.57
2022-11-22T07:58:56.661Z,7.47
2022-11-22T08:01:24.280Z,12.83
2022-11-22T08:03:52.081Z,16.07
2022-11-22T08:06:19.685Z,13.93
2022-11-22T08:08:47.230Z,13.67
2022-11-22T08:11:14.887Z,15.40
2022-11-22T08:13:42.851Z,10.20
2022-11-22T08:16:17.817Z,10.33
2022-11-22T08:18:50.702Z,10.57
2022-11-22T08:21:20.058Z,12.07
2022-11-22T08:23:49.172Z,8.23
2022-11-22T08:26:18.931Z,8.47
2022-11-22T08:28:46.618Z,7.87
2022-11-22T08:31:21.007Z,8.77
2022-11-22T08:33:54.233Z,10.10
2022-11-22T08:36:22.600Z,8.97
2022-11-22T08:38:50.370Z,15.20
2022-11-22T08:41:21.663Z,5.73
2022-11-22T08:43:55.151Z,8.20
2022-11-22T08:46:25.762Z,4.90
2022-11-22T08:48:54.380Z,7.37
2022-11-22T08:51:22.241Z,8.60
2022-11-22T08:53:53.035Z,8.93
2022-11-22T08:56:20.692Z,6.53
2022-11-22T08:58:48.875Z,4.30
2022-11-22T09:01:21.459Z,9.27
2022-11-22T09:03:50.336Z,7.47
2022-11-22T09:09:36.259Z,12.17
2022-11-22T09:11:56.335Z,8.30
2022-11-22T09:14:24.027Z,7.20
2022-11-22T09:16:51.973Z,11.40
2022-11-22T09:19:19.676Z,6.07
2022-11-22T09:21:47.187Z,6.80
2022-11-22T09:24:15.438Z,5.90
2022-11-22T09:26:43.015Z,8.87
2022-11-22T09:29:10.646Z,10.73
2022-11-22T09:31:38.729Z,8.70
2022-11-22T09:34:07.887Z,9.70
2022-11-22T09:36:35.840Z,7.80
2022-11-22T09:39:03.675Z,6.10
2022-11-22T09:42:36.799Z,9.20
2022-11-22T09:45:53.367Z,17.33
2022-11-22T09:49:35.346Z,8.13
2022-11-22T09:52:27.989Z,4.90
2022-11-22T09:55:10.111Z,7.40
2022-11-22T09:57:52.221Z,4.80
2022-11-22T10:00:29.872Z,6.07
2022-11-22T10:03:49.066Z,6.90
2022-11-22T10:06:39.446Z,8.47
2022-11-22T10:09:51.903Z,7.60
2022-11-22T10:12:46.546Z,5.00
2022-11-22T10:16:03.388Z,6.83
2022-11-22T10:19:04.150Z,5.33
2022-11-22T10:21:31.835Z,5.70
2022-11-22T10:23:59.790Z,8.20
2022-11-22T10:26:34.667Z,7.47
2022-11-22T10:29:44.573Z,6.97
2022-11-22T10:33:09.935Z,8.03
2022-11-22T10:36:27.781Z,8.10
2022-11-22T10:39:38.141Z,10.97
2022-11-22T10:42:42.829Z,7.70
2022-11-22T10:45:40.824Z,4.60
2022-11-22T10:49:00.660Z,4.73
2022-11-22T10:52:03.542Z,8.30
2022-11-22T10:55:11.203Z,8.40
2022-11-22T10:58:10.095Z,9.87
2022-11-22T11:00:49.283Z,8.30
2022-11-22T11:03:43.731Z,9.60
2022-11-22T11:07:10.926Z,8.93
2022-11-22T11:13:08.118Z,9.47
2022-11-22T11:15:55.535Z,5.73
2022-11-22T11:19:13.945Z,5.93
2022-11-22T11:21:41.548Z,7.27
2022-11-22T11:24:17.575Z,6.93
2022-11-22T11:26:56.351Z,8.33
2022-11-22T11:30:12.894Z,6.40
2022-11-22T11:32:57.406Z,3.87
2022-11-22T11:35:30.269Z,4.80
2022-11-22T11:37:58.007Z,8.67
2022-11-22T11:40:32.967Z,9.00
2022-11-22T11:43:23.767Z,7.23
2022-11-22T11:45:52.675Z,4.50
2022-11-22T11:48:41.168Z,6.93
2022-11-22T11:52:02.036Z,3.63
2022-11-22T11:54:48.250Z,6.50
2022-11-22T11:57:30.915Z,3.20
2022-11-22T12:00:18.906Z,4.57
2022-11-22T12:02:48.094Z,5.00
2022-11-22T12:05:15.583Z,4.07
2022-11-22T12:07:48.014Z,4.07
2022-11-22T12:11:14.521Z,5.27
2022-11-22T12:16:59.077Z,5.37
2022-11-22T12:20:12.348Z,2.80
2022-11-22T12:23:32.641Z,3.77
2022-11-22T12:26:01.938Z,7.23
2022-11-22T12:28:31.933Z,3.53
2022-11-22T12:31:24.028Z,4.60
2022-11-22T12:34:10.604Z,6.30
2022-11-22T12:37:07.787Z,2.90
2022-11-22T12:39:38.459Z,3.07
2022-11-22T12:42:35.064Z,5.10
2022-11-22T12:45:23.584Z,5.10
2022-11-22T12:47:55.452Z,5.03
2022-11-22T12:50:44.443Z,2.70
2022-11-22T12:53:23.766Z,3.00
2022-11-22T12:56:17.586Z,3.10
2022-11-22T12:59:13.802Z,3.37
2022-11-22T13:02:22.806Z,4.50
2022-11-22T13:05:31.831Z,3.60
2022-11-22T13:08:40.962Z,4.00
2022-11-22T13:11:52.824Z,4.70
2022-11-22T13:14:47.992Z,3.70
2022-11-22T13:17:18.647Z,3.07
2022-11-22T13:20:20.935Z,3.33
2022-11-22T13:23:57.352Z,5.27
2022-11-22T13:26:56.522Z,3.60
2022-11-22T13:29:30.494Z,2.90
2022-11-22T13:32:20.562Z,8.20
2022-11-22T13:35:12.479Z,3.00
2022-11-22T13:37:48.896Z,4.07
2022-11-22T13:40:16.441Z,2.77
2022-11-22T13:42:44.631Z,4.13
2022-11-22T13:45:26.205Z,4.40
2022-11-22T13:47:54.448Z,2.60
2022-11-22T13:50:40.375Z,3.17
2022-11-22T13:53:20.230Z,3.57
2022-11-22T13:55:48.419Z,3.90
2022-11-22T13:58:25.076Z,2.87
2022-11-22T14:00:59.994Z,6.77
2022-11-22T14:03:43.022Z,4.07
2022-11-22T14:06:30.987Z,4.87
2022-11-22T14:09:42.625Z,2.40
2022-11-22T14:13:33.625Z,7.50
2022-11-22T14:17:14.177Z,3.60
2022-11-22T14:20:22.171Z,2.93
2022-11-22T14:23:05.771Z,3.40
2022-11-22T14:26:06.567Z,5.63
2022-11-22T14:29:48.182Z,3.70
2022-11-22T14:32:25.199Z,3.00
2022-11-22T14:35:04.980Z,3.80
2022-11-22T14:37:32.553Z,3.90
2022-11-22T14:40:08.882Z,5.60
2022-11-22T14:42:36.686Z,4.80
2022-11-22T14:45:10.422Z,3.53
2022-11-22T14:47:54.034Z,5.23
2022-11-22T14:50:51.442Z,3.50
2022-11-22T14:53:44.592Z,3.77
2022-11-22T14:56:31.133Z,2.83
2022-11-22T14:59:01.703Z,2.77
2022-11-22T15:03:03.596Z,3.93
2022-11-22T15:09:11.236Z,5.37
2022-11-22T15:09:52.249Z,3.80
2022-11-22T15:12:54.063Z,5.10
2022-11-22T15:58:14.268Z,5.90
2022-11-22T16:00:45.085Z,2.57
2022-11-22T16:03:31.336Z,2.80
2022-11-22T16:06:12.090Z,3.43
2022-11-22T16:08:48.815Z,3.07
2022-11-22T16:11:37.230Z,2.97
2022-11-22T16:14:43.642Z,2.00
2022-11-22T16:17:38.052Z,3.93
2022-11-22T16:20:28.602Z,2.07
2022-11-22T16:23:13.773Z,3.63
2022-11-22T16:25:53.017Z,1.93
2022-11-22T16:28:38.122Z,4.97
2022-11-22T16:31:31.703Z,1.90
2022-11-22T16:34:00.201Z,2.13
2022-11-22T16:36:30.541Z,2.27
2022-11-22T16:38:58.314Z,3.43
2022-11-22T16:41:29.637Z,2.67
2022-11-22T16:44:11.746Z,2.30
2022-11-22T16:46:43.943Z,3.30
2022-11-22T16:49:22.654Z,1.93
2022-11-22T16:51:58.343Z,1.97
2022-11-22T16:54:34.695Z,4.23
2022-11-22T16:57:02.714Z,2.87
2022-11-22T16:59:30.555Z,3.00
2022-11-22T17:02:00.424Z,2.87
2022-11-22T17:04:28.202Z,3.70
2022-11-22T17:06:55.922Z,2.27
2022-11-22T17:09:23.483Z,1.80
2022-11-22T17:11:51.530Z,2.53
2022-11-22T17:14:19.803Z,3.03
2022-11-22T17:16:47.879Z,3.13
2022-11-22T17:19:52.697Z,1.70
2022-11-22T17:22:07.074Z,3.60
2022-11-22T17:24:35.781Z,3.33
2022-11-22T17:27:03.425Z,3.67
2022-11-22T17:32:19.787Z,3.73
2022-11-22T17:34:47.558Z,2.93
2022-11-22T17:37:15.704Z,3.20
2022-11-22T17:39:43.220Z,2.93
2022-11-22T17:42:12.142Z,4.13
2022-11-22T17:44:40.405Z,2.20
2022-11-22T17:47:08.904Z,2.67
2022-11-22T17:49:36.436Z,3.13
2022-11-22T17:52:04.051Z,2.90
2022-11-22T17:54:32.054Z,2.80
2022-11-22T17:56:59.691Z,3.90
2022-11-22T17:59:27.265Z,2.97
2022-11-22T18:01:55.054Z,3.33
2022-11-22T18:04:22.647Z,2.97
2022-11-22T18:06:50.294Z,3.13
2022-11-22T18:09:17.935Z,2.20
2022-11-22T18:11:46.028Z,4.30
2022-11-22T18:14:14.351Z,2.30
2022-11-22T18:16:41.913Z,3.00
2022-11-22T18:19:09.663Z,4.57
2022-11-22T18:21:39.110Z,3.43
2022-11-22T18:24:08.599Z,3.93
2022-11-22T18:26:40.782Z,3.40
2022-11-22T18:32:02.261Z,2.83
2022-11-22T18:34:31.110Z,3.53
2022-11-22T18:37:03.071Z,3.60
2022-11-22T18:39:39.054Z,4.50
2022-11-22T18:42:16.218Z,4.40
2022-11-22T18:44:43.944Z,3.00
2022-11-22T18:47:11.592Z,4.90
2022-11-22T18:49:39.298Z,4.70
2022-11-22T18:52:08.769Z,4.33
2022-11-22T18:54:38.381Z,5.83
2022-11-22T18:57:06.526Z,5.03
2022-11-22T18:59:34.883Z,4.20
2022-11-22T19:02:02.984Z,3.80
2022-11-22T19:04:30.983Z,3.93
2022-11-22T19:06:59.493Z,4.90
2022-11-22T19:09:27.086Z,5.07
2022-11-22T19:11:58.301Z,6.73
2022-11-22T19:14:31.112Z,3.37
2022-11-22T19:16:58.908Z,6.30
2022-11-22T19:19:26.497Z,5.43
2022-11-22T19:21:54.123Z,4.60
2022-11-22T19:24:21.735Z,5.07
2022-11-22T19:26:49.240Z,5.50
2022-11-22T19:29:18.335Z,4.57
2022-11-22T19:31:46.679Z,4.00
2022-11-22T19:34:14.973Z,5.77
2022-11-22T19:36:43.791Z,5.33
2022-11-22T19:39:15.566Z,9.43
2022-11-22T19:41:45.184Z,4.97
2022-11-22T19:44:12.917Z,4.90
2022-11-22T19:46:41.562Z,4.73
2022-11-22T19:49:10.527Z,5.30
2022-11-22T19:51:39.093Z,5.30
2022-11-22T19:54:07.635Z,4.63
2022-11-22T19:56:39.015Z,4.77
2022-11-22T19:59:15.668Z,6.20
2022-11-22T20:01:43.629Z,4.00
2022-11-22T20:04:15.570Z,6.10
2022-11-22T20:06:47.202Z,4.40
2022-11-22T20:09:17.452Z,5.63
2022-11-22T20:11:45.579Z,3.87
2022-11-22T20:14:13.186Z,3.70
2022-11-22T20:16:41.813Z,6.43
2022-11-22T20:19:12.477Z,4.00
2022-11-22T20:21:41.303Z,4.63
2022-11-22T20:24:09.627Z,6.77
2022-11-22T20:26:37.882Z,3.97
2022-11-22T20:29:12.955Z,3.70
2022-11-22T20:31:41.375Z,3.70
2022-11-22T20:34:10.826Z,4.37
2022-11-22T20:36:38.439Z,3.50
2022-11-22T20:39:10.415Z,3.93
2022-11-22T20:41:40.545Z,8.13
2022-11-22T20:44:13.932Z,5.30
2022-11-22T20:46:42.180Z,6.73
2022-11-22T20:49:10.122Z,3.17
2022-11-22T20:51:42.775Z,3.57
2022-11-22T20:54:11.493Z,4.93
2022-11-22T20:56:39.526Z,3.40
2022-11-22T20:59:07.608Z,3.97
2022-11-22T21:01:36.302Z,5.90
2022-11-22T21:04:04.238Z,2.80
2022-11-22T21:06:33.766Z,6.87
2022-11-22T21:09:02.418Z,4.70
2022-11-22T21:11:32.067Z,4.23
2022-11-22T21:13:59.952Z,4.90
2022-11-22T21:16:30.763Z,4.43
2022-11-22T21:19:06.814Z,6.30
2022-11-22T21:21:37.231Z,10.27
2022-11-22T21:24:07.366Z,9.00
2022-11-22T21:26:35.512Z,5.67
2022-11-22T21:29:04.935Z,4.63
2022-11-22T21:31:32.645Z,4.40
2022-11-22T21:34:00.226Z,4.60
2022-11-22T21:36:27.868Z,6.50
2022-11-22T21:38:55.533Z,5.83
2022-11-22T21:41:39.458Z,8.70
2022-11-22T21:44:10.816Z,6.50
2022-11-22T21:46:39.139Z,4.97
2022-11-22T21:49:07.500Z,3.20
2022-11-22T21:51:35.058Z,5.30
2022-11-22T21:54:04.389Z,5.13
2022-11-22T21:56:32.141Z,6.80
2022-11-22T21:59:00.190Z,3.93
2022-11-22T22:01:28.352Z,5.20
2022-11-22T22:03:56.102Z,8.27
2022-11-22T22:06:25.194Z,4.00
2022-11-22T22:08:53.250Z,5.80
2022-11-22T22:11:21.285Z,4.50
2022-11-22T22:13:48.938Z,6.80
2022-11-22T22:16:19.231Z,6.67
2022-11-22T22:18:47.655Z,5.43
2022-11-22T22:21:18.422Z,5.13
2022-11-22T22:23:46.875Z,7.50
2022-11-22T22:26:17.992Z,5.30
2022-11-22T22:28:46.556Z,7.63
2022-11-22T22:31:24.089Z,5.53
2022-11-22T22:33:57.439Z,5.10
2022-11-22T22:36:27.768Z,3.70
2022-11-22T22:38:55.553Z,9.47
2022-11-22T22:41:23.470Z,6.13
2022-11-22T22:43:51.082Z,8.60
2022-11-22T22:46:24.938Z,7.33
2022-11-22T22:48:57.532Z,7.20
2022-11-22T22:51:33.071Z,3.27
2022-11-22T22:54:02.519Z,3.70
2022-11-22T22:56:32.151Z,6.50
2022-11-22T22:59:01.114Z,7.87
2022-11-22T23:01:31.982Z,3.13
2022-11-22T23:04:08.203Z,6.40
2022-11-22T23:06:40.374Z,3.57
2022-11-22T23:09:12.823Z,6.10
2022-11-22T23:12:00.172Z,4.97
2022-11-22T23:14:30.330Z,5.17
2022-11-22T23:16:58.677Z,5.80
2022-11-22T23:19:27.938Z,6.83
2022-11-22T23:21:56.332Z,5.30
2022-11-22T23:24:24.271Z,5.40
2022-11-22T23:26:51.914Z,5.13
2022-11-22T23:29:19.583Z,5.57
2022-11-22T23:31:47.117Z,6.60
2022-11-22T23:34:20.351Z,4.70
2022-11-22T23:36:48.747Z,7.03
2022-11-22T23:39:16.784Z,7.60
2022-11-22T23:41:45.225Z,4.67
2022-11-22T23:44:13.108Z,10.70
2022-11-22T23:46:41.619Z,12.73
2022-11-22T23:49:11.965Z,4.13
2022-11-22T23:51:39.867Z,6.67
2022-11-22T23:54:09.772Z,11.53
2022-11-22T23:56:38.127Z,8.23
2022-11-22T23:59:05.917Z,7.23
